createdAt,value
2018-08-20T00:00:44.602Z,19.20
2018-08-20T00:03:13.184Z,19.20
2018-08-20T00:05:44.393Z,19.20
2018-08-20T00:08:19.637Z,19.20
2018-08-20T00:10:48.117Z,19.20
2018-08-20T00:13:16.512Z,19.10
2018-08-20T00:15:44.925Z,19.10
2018-08-20T00:18:17.770Z,19.20
2018-08-20T00:20:46.291Z,19.10
2018-08-20T00:23:14.770Z,19.10
2018-08-20T00:25:43.168Z,19.10
2018-08-20T00:28:11.582Z,19.10
2018-08-20T00:30:42.130Z,19.10
2018-08-20T00:33:10.732Z,19.00
2018-08-20T00:35:39.117Z,19.00
2018-08-20T00:38:07.539Z,19.00
2018-08-20T00:40:35.944Z,19.00
2018-08-20T00:43:04.458Z,19.00
2018-08-20T00:45:32.864Z,19.00
2018-08-20T00:48:01.284Z,19.00
2018-08-20T00:50:29.653Z,18.90
2018-08-20T00:55:26.182Z,18.80
2018-08-20T00:57:54.773Z,18.80
2018-08-20T01:00:23.163Z,18.80
2018-08-20T01:02:51.568Z,18.80
2018-08-20T01:05:19.962Z,18.80
2018-08-20T01:07:48.388Z,18.80
2018-08-20T01:10:16.788Z,18.80
2018-08-20T01:12:45.193Z,18.80
2018-08-20T01:15:13.765Z,18.80
2018-08-20T01:20:10.478Z,18.70
2018-08-20T01:22:38.941Z,18.70
2018-08-20T01:25:07.383Z,18.70
2018-08-20T01:27:35.832Z,18.70
2018-08-20T01:30:04.604Z,18.70
2018-08-20T01:32:33.219Z,18.60
2018-08-20T01:35:18.541Z,18.60
2018-08-20T01:37:47.392Z,18.60
2018-08-20T01:40:15.927Z,18.60
2018-08-20T01:42:44.314Z,18.60
2018-08-20T01:45:12.757Z,18.60
2018-08-20T01:47:41.145Z,18.60
2018-08-20T01:50:09.601Z,18.60
2018-08-20T01:52:38.008Z,18.60
2018-08-20T01:55:06.773Z,18.60
2018-08-20T01:57:35.171Z,18.60
2018-08-20T02:00:03.676Z,18.60
2018-08-20T02:02:32.061Z,18.50
2018-08-20T02:05:00.492Z,18.50
2018-08-20T02:07:28.928Z,18.50
2018-08-20T02:09:57.388Z,18.50
2018-08-20T02:12:25.799Z,18.50
2018-08-20T02:17:22.328Z,18.40
2018-08-20T02:19:50.739Z,18.50
2018-08-20T02:22:19.310Z,18.40
2018-08-20T02:24:47.723Z,18.40
2018-08-20T02:27:16.132Z,18.40
2018-08-20T02:29:44.509Z,18.50
2018-08-20T02:32:12.956Z,18.40
2018-08-20T02:34:41.365Z,18.40
2018-08-20T02:39:37.924Z,18.40
2018-08-20T02:42:06.399Z,18.40
2018-08-20T02:44:34.809Z,18.40
2018-08-20T02:47:03.280Z,18.30
2018-08-20T02:49:31.771Z,18.30
2018-08-20T02:52:00.196Z,18.30
2018-08-20T02:54:28.650Z,18.30
2018-08-20T02:56:57.117Z,18.30
2018-08-20T02:59:25.504Z,18.20
2018-08-20T03:01:53.985Z,18.20
2018-08-20T03:04:22.468Z,18.20
2018-08-20T03:06:51.020Z,18.10
2018-08-20T03:09:19.459Z,18.20
2018-08-20T03:11:47.851Z,18.10
2018-08-20T03:14:16.404Z,18.10
2018-08-20T03:16:44.783Z,18.10
2018-08-20T03:19:13.213Z,18.10
2018-08-20T03:21:41.646Z,18.10
2018-08-20T03:24:10.077Z,18.10
2018-08-20T03:26:38.473Z,18.10
2018-08-20T03:29:06.922Z,18.10
2018-08-20T03:31:35.305Z,18.10
2018-08-20T03:34:03.782Z,18.10
2018-08-20T03:36:32.175Z,18.00
2018-08-20T03:39:00.637Z,18.00
2018-08-20T03:41:29.092Z,18.00
2018-08-20T03:43:57.520Z,18.00
2018-08-20T03:46:25.969Z,18.00
2018-08-20T03:48:54.586Z,18.10
2018-08-20T03:51:22.986Z,18.00
2018-08-20T03:53:51.456Z,18.00
2018-08-20T03:56:19.834Z,18.00
2018-08-20T03:58:48.246Z,18.00
2018-08-20T04:01:16.625Z,17.90
2018-08-20T04:03:45.087Z,17.90
2018-08-20T04:06:13.467Z,17.90
2018-08-20T04:08:41.893Z,17.90
2018-08-20T04:11:10.269Z,17.90
2018-08-20T04:13:38.737Z,17.90
2018-08-20T04:16:07.167Z,17.90
2018-08-20T04:18:35.551Z,17.90
2018-08-20T04:21:04.009Z,17.80
2018-08-20T04:23:32.388Z,17.80
2018-08-20T04:26:00.853Z,17.80
2018-08-20T04:28:29.269Z,17.80
2018-08-20T04:30:57.669Z,17.80
2018-08-20T04:33:26.050Z,17.80
2018-08-20T04:35:54.490Z,17.80
2018-08-20T04:38:22.892Z,17.80
2018-08-20T04:40:51.294Z,17.90
2018-08-20T04:43:19.726Z,17.90
2018-08-20T04:45:48.183Z,17.90
2018-08-20T04:48:16.577Z,17.90
2018-08-20T04:50:45.046Z,18.00
2018-08-20T04:53:13.419Z,18.10
2018-08-20T04:55:41.975Z,18.20
2018-08-20T04:58:10.363Z,18.20
2018-08-20T05:00:38.765Z,18.30
2018-08-20T05:03:07.401Z,18.30
2018-08-20T05:05:35.790Z,18.30
2018-08-20T05:08:04.228Z,18.40
2018-08-20T05:10:32.654Z,18.40
2018-08-20T05:13:01.057Z,18.50
2018-08-20T05:15:29.447Z,18.50
2018-08-20T05:17:57.861Z,18.60
2018-08-20T05:20:26.236Z,18.70
2018-08-20T05:22:54.666Z,18.80
2018-08-20T05:25:23.066Z,18.80
2018-08-20T05:27:51.473Z,18.80
2018-08-20T05:30:19.850Z,18.90
2018-08-20T05:32:48.269Z,19.00
2018-08-20T05:35:16.686Z,19.10
2018-08-20T05:37:45.113Z,19.20
2018-08-20T05:40:13.517Z,19.20
2018-08-20T05:42:42.005Z,19.30
2018-08-20T05:45:11.704Z,19.50
2018-08-20T05:47:40.316Z,19.60
2018-08-20T05:50:09.081Z,19.60
2018-08-20T05:52:37.843Z,19.80
2018-08-20T05:55:06.286Z,19.90
2018-08-20T05:57:34.693Z,20.10
2018-08-20T06:00:03.208Z,20.30
2018-08-20T06:02:31.595Z,20.50
2018-08-20T06:04:59.995Z,20.70
2018-08-20T06:07:28.373Z,20.90
2018-08-20T06:09:56.785Z,21.00
2018-08-20T06:12:25.164Z,21.10
2018-08-20T06:14:53.577Z,21.10
2018-08-20T06:17:21.975Z,21.20
2018-08-20T06:19:50.407Z,21.80
2018-08-20T06:22:18.809Z,21.80
2018-08-20T06:24:47.345Z,22.90
2018-08-20T06:27:15.745Z,23.60
2018-08-20T06:29:44.154Z,24.30
2018-08-20T06:32:12.534Z,24.90
2018-08-20T06:34:40.933Z,26.10
2018-08-20T06:37:09.342Z,26.70
2018-08-20T06:39:37.753Z,26.80
2018-08-20T06:42:06.304Z,27.70
2018-08-20T06:44:34.700Z,28.30
2018-08-20T06:47:03.099Z,29.00
2018-08-20T06:49:31.528Z,29.90
2018-08-20T06:51:59.961Z,30.70
2018-08-20T06:54:28.471Z,31.30
2018-08-20T06:56:56.917Z,30.90
2018-08-20T06:59:25.317Z,31.20
2018-08-20T07:01:53.752Z,31.20
2018-08-20T07:04:22.157Z,30.80
2018-08-20T07:06:50.593Z,31.00
2018-08-20T07:09:18.977Z,31.50
2018-08-20T07:11:47.438Z,31.50
2018-08-20T07:14:15.862Z,32.70
2018-08-20T07:16:44.287Z,32.80
2018-08-20T07:19:12.667Z,33.50
2018-08-20T07:21:41.084Z,33.80
2018-08-20T07:24:09.509Z,33.90
2018-08-20T07:26:37.922Z,34.40
2018-08-20T07:29:06.481Z,34.30
2018-08-20T07:31:34.903Z,34.30
2018-08-20T07:34:03.309Z,35.20
2018-08-20T07:36:31.734Z,36.00
2018-08-20T07:39:00.181Z,36.90
2018-08-20T07:41:28.633Z,36.90
2018-08-20T07:43:57.070Z,37.50
2018-08-20T07:46:25.490Z,37.70
2018-08-20T07:48:53.931Z,37.20
2018-08-20T07:51:22.369Z,37.60
2018-08-20T07:53:50.808Z,37.50
2018-08-20T07:56:19.222Z,38.00
2018-08-20T07:58:47.676Z,38.60
2018-08-20T08:01:16.127Z,38.10
2018-08-20T08:03:44.557Z,38.10
2018-08-20T08:06:13.029Z,37.10
2018-08-20T08:08:41.464Z,35.70
2018-08-20T08:11:09.862Z,36.00
2018-08-20T08:13:38.291Z,36.40
2018-08-20T08:16:07.174Z,37.30
2018-08-20T08:18:35.628Z,37.30
2018-08-20T08:21:04.042Z,39.20
2018-08-20T08:23:32.485Z,39.70
2018-08-20T08:26:00.887Z,40.80
2018-08-20T08:28:29.324Z,41.40
2018-08-20T08:33:25.825Z,40.50
2018-08-20T08:35:54.237Z,40.20
2018-08-20T08:38:22.733Z,40.60
2018-08-20T08:40:51.113Z,41.00
2018-08-20T08:43:19.604Z,40.30
2018-08-20T08:45:48.706Z,39.90
2018-08-20T08:50:45.296Z,41.20
2018-08-20T08:53:13.772Z,42.20
2018-08-20T08:55:42.150Z,42.20
2018-08-20T08:58:10.558Z,41.40
2018-08-20T09:00:39.093Z,41.00
2018-08-20T09:03:07.483Z,40.10
2018-08-20T09:05:35.929Z,39.70
2018-08-20T09:08:04.355Z,39.60
2018-08-20T09:10:32.772Z,40.20
2018-08-20T09:13:01.194Z,40.70
2018-08-20T09:15:29.595Z,41.80
2018-08-20T09:17:58.001Z,41.60
2018-08-20T09:20:26.438Z,41.00
2018-08-20T09:22:54.855Z,41.10
2018-08-20T09:25:23.272Z,41.20
2018-08-20T09:27:51.680Z,41.70
2018-08-20T09:30:21.728Z,41.70
2018-08-20T09:32:50.114Z,42.20
2018-08-20T09:35:18.549Z,41.90
2018-08-20T09:37:46.964Z,41.80
2018-08-20T09:40:15.512Z,42.10
2018-08-20T09:42:44.266Z,42.80
2018-08-20T09:45:12.748Z,42.60
2018-08-20T09:47:41.941Z,43.30
2018-08-20T09:50:15.186Z,42.40
2018-08-20T09:52:44.001Z,41.70
2018-08-20T09:55:12.423Z,40.80
2018-08-20T09:57:41.081Z,40.80
2018-08-20T10:00:12.857Z,40.80
2018-08-20T10:02:41.250Z,40.70
2018-08-20T10:05:09.735Z,40.30
2018-08-20T10:07:38.143Z,40.90
2018-08-20T10:10:06.630Z,40.30
2018-08-20T10:12:35.134Z,40.00
2018-08-20T10:15:03.686Z,40.30
2018-08-20T10:17:32.090Z,39.90
2018-08-20T10:20:00.469Z,39.50
2018-08-20T10:22:28.978Z,40.00
2018-08-20T10:24:57.716Z,39.60
2018-08-20T10:27:26.133Z,38.70
2018-08-20T10:29:54.514Z,37.90
2018-08-20T10:32:22.926Z,38.50
2018-08-20T10:34:51.305Z,38.50
2018-08-20T10:37:19.716Z,38.40
2018-08-20T10:39:48.105Z,38.70
2018-08-20T10:42:16.546Z,38.20
2018-08-20T10:44:50.255Z,38.30
2018-08-20T10:47:19.065Z,38.50
2018-08-20T10:49:47.453Z,38.20
2018-08-20T10:52:15.885Z,37.60
2018-08-20T10:54:44.306Z,37.10
2018-08-20T10:57:12.725Z,36.70
2018-08-20T10:59:41.125Z,34.30
2018-08-20T11:02:10.276Z,33.50
2018-08-20T11:04:39.076Z,33.30
2018-08-20T11:07:07.674Z,32.90
2018-08-20T11:09:36.108Z,32.40
2018-08-20T11:12:04.552Z,31.60
2018-08-20T11:14:32.980Z,31.00
2018-08-20T11:17:01.374Z,30.60
2018-08-20T11:19:29.797Z,30.40
2018-08-20T11:21:58.212Z,30.40
2018-08-20T11:24:26.625Z,30.00
2018-08-20T11:26:55.041Z,29.80
2018-08-20T11:29:23.450Z,29.90
2018-08-20T11:31:51.832Z,30.00
2018-08-20T11:34:20.237Z,30.10
2018-08-20T11:36:48.611Z,30.20
2018-08-20T11:39:17.037Z,29.90
2018-08-20T11:41:45.409Z,29.60
2018-08-20T11:44:13.839Z,29.20
2018-08-20T11:46:42.241Z,29.00
2018-08-20T11:49:10.830Z,28.80
2018-08-20T11:51:39.173Z,28.80
2018-08-20T11:54:07.621Z,29.00
2018-08-20T11:59:04.211Z,28.90
2018-08-20T12:01:32.668Z,28.70
2018-08-20T12:04:01.085Z,28.70
2018-08-20T12:06:29.509Z,28.70
2018-08-20T12:08:57.882Z,28.80
2018-08-20T12:11:26.297Z,28.80
2018-08-20T12:13:54.688Z,28.80
2018-08-20T12:16:23.101Z,28.80
2018-08-20T12:18:51.698Z,28.80
2018-08-20T12:21:20.129Z,28.80
2018-08-20T12:23:48.538Z,29.00
2018-08-20T12:26:16.946Z,29.10
2018-08-20T12:28:45.324Z,29.00
2018-08-20T12:31:13.734Z,29.10
2018-08-20T12:33:42.128Z,29.00
2018-08-20T12:36:10.509Z,28.80
2018-08-20T12:38:38.917Z,28.80
2018-08-20T12:41:07.316Z,28.60
2018-08-20T12:43:35.743Z,28.50
2018-08-20T12:46:04.153Z,28.50
2018-08-20T12:48:32.636Z,28.70
2018-08-20T12:51:01.001Z,28.80
2018-08-20T12:53:29.444Z,28.80
2018-08-20T12:55:57.821Z,28.70
2018-08-20T12:58:26.283Z,28.60
2018-08-20T13:00:54.700Z,28.60
2018-08-20T13:05:51.228Z,28.40
2018-08-20T13:08:19.628Z,28.40
2018-08-20T13:10:48.038Z,28.50
2018-08-20T13:13:16.454Z,28.40
2018-08-20T13:15:44.932Z,28.30
2018-08-20T13:18:13.341Z,28.10
2018-08-20T13:23:09.849Z,28.30
2018-08-20T13:25:38.241Z,28.30
2018-08-20T13:28:06.688Z,28.30
2018-08-20T13:30:35.108Z,28.40
2018-08-20T13:33:03.518Z,28.40
2018-08-20T13:35:31.900Z,28.50
2018-08-20T13:38:00.356Z,28.60
2018-08-20T13:40:28.764Z,28.50
2018-08-20T13:45:25.445Z,28.40
2018-08-20T13:47:53.852Z,28.50
2018-08-20T13:50:22.259Z,28.60
2018-08-20T13:52:50.717Z,28.60
2018-08-20T13:55:19.085Z,28.50
2018-08-20T13:58:18.224Z,28.50
2018-08-20T14:00:46.718Z,28.40
2018-08-20T14:03:15.158Z,28.30
2018-08-20T14:05:43.597Z,28.30
2018-08-20T14:08:12.013Z,28.20
2018-08-20T14:10:40.394Z,28.10
2018-08-20T14:13:08.894Z,28.10
2018-08-20T14:15:37.323Z,28.00
2018-08-20T14:18:06.125Z,27.90
2018-08-20T14:20:34.516Z,28.00
2018-08-20T14:23:02.959Z,28.10
2018-08-20T14:25:31.333Z,28.00
2018-08-20T14:27:59.701Z,28.00
2018-08-20T14:30:28.148Z,28.10
2018-08-20T14:32:56.520Z,28.10
2018-08-20T14:35:24.948Z,28.00
2018-08-20T14:37:53.339Z,27.90
2018-08-20T14:40:21.760Z,28.00
2018-08-20T14:42:50.137Z,28.00
2018-08-20T14:45:18.570Z,28.00
2018-08-20T14:47:46.967Z,28.10
2018-08-20T14:50:17.149Z,28.00
2018-08-20T14:52:45.578Z,28.00
2018-08-20T14:55:14.089Z,27.90
2018-08-20T14:57:42.469Z,27.90
2018-08-20T15:00:12.853Z,27.80
2018-08-20T15:02:41.272Z,27.80
2018-08-20T15:05:10.029Z,27.80
2018-08-20T15:07:38.604Z,27.70
2018-08-20T15:10:08.006Z,27.70
2018-08-20T15:12:36.602Z,27.70
2018-08-20T15:15:06.014Z,27.70
2018-08-20T15:17:34.401Z,27.60
2018-08-20T15:22:30.904Z,27.50
2018-08-20T15:24:59.316Z,27.40
2018-08-20T15:27:27.722Z,27.40
2018-08-20T15:29:56.188Z,27.40
2018-08-20T15:32:24.630Z,27.40
2018-08-20T15:34:53.021Z,27.40
2018-08-20T15:37:21.518Z,27.30
2018-08-20T15:39:49.899Z,27.20
2018-08-20T15:42:19.070Z,27.10
2018-08-20T15:44:47.448Z,27.10
2018-08-20T15:47:15.879Z,27.10
2018-08-20T15:49:44.250Z,27.10
2018-08-20T15:52:12.687Z,27.20
2018-08-20T15:54:41.084Z,27.20
2018-08-20T15:57:09.501Z,27.30
2018-08-20T16:02:06.362Z,27.30
2018-08-20T16:04:34.775Z,27.30
2018-08-20T16:07:03.235Z,27.30
2018-08-20T16:09:31.699Z,27.30
2018-08-20T16:12:00.085Z,27.50
2018-08-20T16:14:28.510Z,27.50
2018-08-20T16:16:56.877Z,27.50
2018-08-20T16:19:25.290Z,27.50
2018-08-20T16:21:53.714Z,27.50
2018-08-20T16:24:22.136Z,27.40
2018-08-20T16:26:50.620Z,27.40
2018-08-20T16:29:19.042Z,27.40
2018-08-20T16:31:47.472Z,27.30
2018-08-20T16:34:15.896Z,27.20
2018-08-20T16:36:44.308Z,27.20
2018-08-20T16:41:41.627Z,27.30
2018-08-20T16:44:10.905Z,27.30
2018-08-20T16:46:39.665Z,27.30
2018-08-20T16:49:09.681Z,27.30
2018-08-20T16:51:38.093Z,27.20
2018-08-20T16:54:06.861Z,27.10
2018-08-20T16:56:35.320Z,27.10
2018-08-20T16:59:03.865Z,27.00
2018-08-20T17:01:32.296Z,26.80
2018-08-20T17:04:00.708Z,26.70
2018-08-20T17:06:44.594Z,26.70
2018-08-20T17:09:13.031Z,26.50
2018-08-20T17:11:41.432Z,26.40
2018-08-20T17:14:09.836Z,26.30
2018-08-20T17:16:38.260Z,26.30
2018-08-20T17:19:06.653Z,26.20
2018-08-20T17:21:35.088Z,26.10
2018-08-20T17:24:03.567Z,26.10
2018-08-20T17:26:31.977Z,26.10
2018-08-20T17:29:07.719Z,26.10
2018-08-20T17:31:36.144Z,26.00
2018-08-20T17:34:05.629Z,25.90
2018-08-20T17:36:34.141Z,25.90
2018-08-20T17:39:02.951Z,25.80
2018-08-20T17:41:31.414Z,25.70
2018-08-20T17:43:59.811Z,25.70
2018-08-20T17:46:28.335Z,25.60
2018-08-20T17:48:56.745Z,25.50
2018-08-20T17:51:25.170Z,25.50
2018-08-20T17:53:55.905Z,25.40
2018-08-20T17:56:24.345Z,25.40
2018-08-20T17:59:24.899Z,25.20
2018-08-20T18:01:53.338Z,25.10
2018-08-20T18:04:21.789Z,25.10
2018-08-20T18:06:55.152Z,24.90
2018-08-20T18:09:23.716Z,24.80
2018-08-20T18:11:54.404Z,24.70
2018-08-20T18:14:24.097Z,24.60
2018-08-20T18:16:52.540Z,24.50
2018-08-20T18:19:20.971Z,24.50
2018-08-20T18:21:49.512Z,24.40
2018-08-20T18:24:19.362Z,24.30
2018-08-20T18:26:51.584Z,24.20
2018-08-20T18:29:20.028Z,24.10
2018-08-20T18:34:20.499Z,24.00
2018-08-20T18:36:48.924Z,24.00
2018-08-20T18:39:17.401Z,24.00
2018-08-20T18:42:02.656Z,24.00
2018-08-20T18:44:31.112Z,23.90
2018-08-20T18:46:59.517Z,23.90
2018-08-20T18:49:27.955Z,23.90
2018-08-20T18:52:13.041Z,24.00
2018-08-20T18:54:43.682Z,24.00
2018-08-20T18:57:16.998Z,23.90
2018-08-20T18:59:45.509Z,23.90
2018-08-20T19:02:32.056Z,23.90
2018-08-20T19:07:29.606Z,23.80
2018-08-20T19:09:58.077Z,23.70
2018-08-20T19:12:26.500Z,23.70
2018-08-20T19:14:54.932Z,23.60
2018-08-20T19:17:26.173Z,23.60
2018-08-20T19:19:54.909Z,23.50
2018-08-20T19:22:26.202Z,23.40
2018-08-20T19:24:54.720Z,23.40
2018-08-20T19:27:27.432Z,23.30
2018-08-20T19:29:55.877Z,23.20
2018-08-20T19:32:24.314Z,23.20
2018-08-20T19:34:52.715Z,23.10
2018-08-20T19:37:21.124Z,23.00
2018-08-20T19:39:49.529Z,23.00
2018-08-20T19:42:23.285Z,22.90
2018-08-20T19:44:51.747Z,22.80
2018-08-20T19:47:20.138Z,22.70
2018-08-20T19:49:48.546Z,22.70
2018-08-20T19:52:17.042Z,22.60
2018-08-20T19:54:47.093Z,22.50
2018-08-20T19:57:15.529Z,22.50
2018-08-20T19:59:43.921Z,22.40
2018-08-20T20:02:12.538Z,22.40
2018-08-20T20:04:40.943Z,22.30
2018-08-20T20:07:09.347Z,22.30
2018-08-20T20:09:38.128Z,22.20
2018-08-20T20:12:06.591Z,22.20
2018-08-20T20:14:44.263Z,22.10
2018-08-20T20:17:12.738Z,22.10
2018-08-20T20:19:41.126Z,22.10
2018-08-20T20:22:13.665Z,22.00
2018-08-20T20:24:42.208Z,22.00
2018-08-20T20:27:10.654Z,21.90
2018-08-20T20:29:39.157Z,21.90
2018-08-20T20:34:35.733Z,21.90
2018-08-20T20:37:04.193Z,21.80
2018-08-20T20:39:32.621Z,21.80
2018-08-20T20:42:01.069Z,21.70
2018-08-20T20:44:29.878Z,21.70
2018-08-20T20:46:58.442Z,21.70
2018-08-20T20:49:26.986Z,21.60
2018-08-20T20:51:55.410Z,21.50
2018-08-20T20:54:23.845Z,21.50
2018-08-20T20:56:52.227Z,21.40
2018-08-20T20:59:20.649Z,21.40
2018-08-20T21:01:49.030Z,21.30
2018-08-20T21:04:17.470Z,21.20
2018-08-20T21:06:45.982Z,21.20
2018-08-20T21:09:14.430Z,21.20
2018-08-20T21:11:42.827Z,21.10
2018-08-20T21:14:11.303Z,21.10
2018-08-20T21:16:39.723Z,21.00
2018-08-20T21:19:08.208Z,21.00
2018-08-20T21:21:36.658Z,20.90
2018-08-20T21:24:07.330Z,20.90
2018-08-20T21:26:35.750Z,20.80
2018-08-20T21:29:04.194Z,20.80
2018-08-20T21:31:37.148Z,20.70
2018-08-20T21:34:05.616Z,20.70
2018-08-20T21:36:34.002Z,20.60
2018-08-20T21:39:02.485Z,20.60
2018-08-20T21:41:30.876Z,20.60
2018-08-20T21:43:59.337Z,20.50
2018-08-20T21:46:27.763Z,20.50
2018-08-20T21:51:28.571Z,20.60
2018-08-20T21:53:57.273Z,20.50
2018-08-20T21:58:58.253Z,20.50
2018-08-20T22:01:27.408Z,20.50
2018-08-20T22:03:55.906Z,20.50
2018-08-20T22:06:24.292Z,20.50
2018-08-20T22:08:52.698Z,20.40
2018-08-20T22:11:21.084Z,20.40
2018-08-20T22:13:49.521Z,20.40
2018-08-20T22:16:21.753Z,20.30
2018-08-20T22:18:58.373Z,20.30
2018-08-20T22:21:26.816Z,20.30
2018-08-20T22:23:58.290Z,20.20
2018-08-20T22:26:26.818Z,20.20
2018-08-20T22:28:55.288Z,20.20
2018-08-20T22:31:23.665Z,20.20
2018-08-20T22:33:59.166Z,20.20
2018-08-20T22:36:28.712Z,20.10
2018-08-20T22:38:58.317Z,20.10
2018-08-20T22:41:27.968Z,20.10
2018-08-20T22:43:56.390Z,20.10
2018-08-20T22:46:25.308Z,20.10
2018-08-20T22:48:56.653Z,20.10
2018-08-20T22:51:26.277Z,20.10
2018-08-20T22:53:55.941Z,20.00
2018-08-20T22:56:26.794Z,20.00
2018-08-20T22:58:57.599Z,20.00
2018-08-20T23:01:26.085Z,20.00
2018-08-20T23:03:54.510Z,19.90
2018-08-20T23:06:23.169Z,19.90
2018-08-20T23:08:51.601Z,19.90
2018-08-20T23:11:38.937Z,19.80
2018-08-20T23:14:09.280Z,19.80
2018-08-20T23:16:38.111Z,19.80
2018-08-20T23:19:06.731Z,19.80
2018-08-20T23:21:39.372Z,19.80
2018-08-20T23:24:07.921Z,19.70
2018-08-20T23:26:36.403Z,19.70
2018-08-20T23:29:04.893Z,19.60
2018-08-20T23:31:33.409Z,19.60
2018-08-20T23:34:01.789Z,19.50
2018-08-20T23:36:30.269Z,19.50
2018-08-20T23:38:58.648Z,19.50
2018-08-20T23:41:27.048Z,19.50
2018-08-20T23:43:59.370Z,19.40
2018-08-20T23:46:49.394Z,19.40
2018-08-20T23:49:17.808Z,19.30
2018-08-20T23:51:46.468Z,19.30
2018-08-20T23:54:14.930Z,19.30
2018-08-20T23:56:43.424Z,19.20
2018-08-20T23:59:11.873Z,19.20
